sensor_id;sensor_type;location;lat;lon;timestamp;pressure;altitude;pressure_sealevel;temperature;humidity
39405;BME280;25121;51.090;17.038;2022-12-08T00:00:56;99437.28;;;3.58;69.66
39405;BME280;25121;51.090;17.038;2022-12-08T00:02:35;99438.94;;;3.59;69.47
39405;BME280;25121;51.090;17.038;2022-12-08T00:08:25;99444.22;;;3.69;69.45
39405;BME280;25121;51.090;17.038;2022-12-08T00:10:12;99446.75;;;3.71;69.25
39405;BME280;25121;51.090;17.038;2022-12-08T00:12:10;99444.78;;;3.73;69.38
39405;BME280;25121;51.090;17.038;2022-12-08T00:13:44;99460.66;;;3.82;69.33
39405;BME280;25121;51.090;17.038;2022-12-08T00:15:08;99452.53;;;3.84;69.24
39405;BME280;25121;51.090;17.038;2022-12-08T00:16:37;99446.69;;;3.80;69.20
39405;BME280;25121;51.090;17.038;2022-12-08T00:18:02;99448.06;;;3.84;69.05
39405;BME280;25121;51.090;17.038;2022-12-08T00:19:26;99448.06;;;3.84;69.14
39405;BME280;25121;51.090;17.038;2022-12-08T00:20:54;99452.09;;;3.88;69.03
39405;BME280;25121;51.090;17.038;2022-12-08T00:22:15;99447.75;;;3.87;68.95
39405;BME280;25121;51.090;17.038;2022-12-08T00:23:36;99450.41;;;3.87;69.01
39405;BME280;25121;51.090;17.038;2022-12-08T00:24:58;99448.59;;;3.88;68.78
39405;BME280;25121;51.090;17.038;2022-12-08T00:26:20;99442.16;;;3.91;69.01
39405;BME280;25121;51.090;17.038;2022-12-08T00:27:44;99441.16;;;3.92;68.75
39405;BME280;25121;51.090;17.038;2022-12-08T00:29:28;99436.84;;;3.91;68.89
39405;BME280;25121;51.090;17.038;2022-12-08T00:30:55;99433.63;;;3.87;69.04
39405;BME280;25121;51.090;17.038;2022-12-08T00:32:17;99429.00;;;3.89;68.96
39405;BME280;25121;51.090;17.038;2022-12-08T00:33:40;99442.56;;;3.96;68.94
39405;BME280;25121;51.090;17.038;2022-12-08T00:35:00;99444.91;;;3.99;68.72
39405;BME280;25121;51.090;17.038;2022-12-08T00:36:30;99447.88;;;3.96;68.69
39405;BME280;25121;51.090;17.038;2022-12-08T00:37:52;99450.91;;;4.01;68.79
39405;BME280;25121;51.090;17.038;2022-12-08T00:39:20;99442.25;;;3.99;68.65
39405;BME280;25121;51.090;17.038;2022-12-08T00:40:43;99451.44;;;4.04;68.71
39405;BME280;25121;51.090;17.038;2022-12-08T00:42:07;99447.94;;;4.04;68.65
39405;BME280;25121;51.090;17.038;2022-12-08T00:43:35;99443.25;;;3.98;68.72
39405;BME280;25121;51.090;17.038;2022-12-08T00:44:58;99438.97;;;4.05;68.46
39405;BME280;25121;51.090;17.038;2022-12-08T00:46:20;99456.63;;;4.06;68.33
39405;BME280;25121;51.090;17.038;2022-12-08T00:47:42;99455.78;;;4.05;68.43
39405;BME280;25121;51.090;17.038;2022-12-08T00:49:04;99459.59;;;4.03;68.40
39405;BME280;25121;51.090;17.038;2022-12-08T00:50:28;99446.72;;;3.98;68.39
39405;BME280;25121;51.090;17.038;2022-12-08T00:51:50;99467.56;;;4.03;68.36
39405;BME280;25121;51.090;17.038;2022-12-08T00:53:12;99457.75;;;4.03;68.32
39405;BME280;25121;51.090;17.038;2022-12-08T00:54:35;99456.06;;;4.02;68.46
39405;BME280;25121;51.090;17.038;2022-12-08T00:55:57;99457.06;;;4.01;68.41
39405;BME280;25121;51.090;17.038;2022-12-08T00:57:18;99468.38;;;4.03;68.40
39405;BME280;25121;51.090;17.038;2022-12-08T00:58:43;99463.38;;;4.00;68.30
39405;BME280;25121;51.090;17.038;2022-12-08T01:00:08;99468.53;;;4.02;68.21
39405;BME280;25121;51.090;17.038;2022-12-08T01:01:30;99473.16;;;4.00;68.25
39405;BME280;25121;51.090;17.038;2022-12-08T01:02:52;99467.84;;;4.00;68.38
39405;BME280;25121;51.090;17.038;2022-12-08T01:04:17;99467.31;;;3.96;68.27
39405;BME280;25121;51.090;17.038;2022-12-08T01:05:39;99469.81;;;3.98;68.25
39405;BME280;25121;51.090;17.038;2022-12-08T01:07:00;99471.78;;;3.96;68.43
39405;BME280;25121;51.090;17.038;2022-12-08T01:08:23;99469.44;;;3.93;68.31
39405;BME280;25121;51.090;17.038;2022-12-08T01:09:44;99464.25;;;3.91;68.22
39405;BME280;25121;51.090;17.038;2022-12-08T01:11:09;99467.91;;;3.90;68.25
39405;BME280;25121;51.090;17.038;2022-12-08T01:12:30;99462.72;;;3.88;68.27
39405;BME280;25121;51.090;17.038;2022-12-08T01:13:53;99461.91;;;3.88;68.30
39405;BME280;25121;51.090;17.038;2022-12-08T01:15:17;99462.88;;;3.87;68.31
39405;BME280;25121;51.090;17.038;2022-12-08T01:16:42;99454.38;;;3.83;68.47
39405;BME280;25121;51.090;17.038;2022-12-08T01:18:04;99458.69;;;3.84;68.33
39405;BME280;25121;51.090;17.038;2022-12-08T01:19:25;99456.84;;;3.85;68.50
39405;BME280;25121;51.090;17.038;2022-12-08T01:20:48;99454.19;;;3.85;68.48
39405;BME280;25121;51.090;17.038;2022-12-08T01:22:08;99457.84;;;3.84;68.48
39405;BME280;25121;51.090;17.038;2022-12-08T01:23:30;99445.41;;;3.84;68.08
39405;BME280;25121;51.090;17.038;2022-12-08T01:24:52;99454.38;;;3.83;68.51
39405;BME280;25121;51.090;17.038;2022-12-08T01:26:16;99448.06;;;3.84;68.44
39405;BME280;25121;51.090;17.038;2022-12-08T01:27:38;99452.53;;;3.84;68.44
39405;BME280;25121;51.090;17.038;2022-12-08T01:29:00;99446.38;;;3.83;68.27
39405;BME280;25121;51.090;17.038;2022-12-08T01:30:23;99436.19;;;3.79;68.14
39405;BME280;25121;51.090;17.038;2022-12-08T01:31:46;99449.34;;;3.80;67.99
39405;BME280;25121;51.090;17.038;2022-12-08T01:33:08;99449.50;;;3.79;68.02
39405;BME280;25121;51.090;17.038;2022-12-08T01:34:30;99454.09;;;3.77;68.07
39405;BME280;25121;51.090;17.038;2022-12-08T01:35:52;99446.31;;;3.75;67.84
39405;BME280;25121;51.090;17.038;2022-12-08T01:37:14;99448.09;;;3.75;67.88
39405;BME280;25121;51.090;17.038;2022-12-08T01:38:37;99445.59;;;3.73;67.93
39405;BME280;25121;51.090;17.038;2022-12-08T01:39:58;99442.25;;;3.71;68.00
39405;BME280;25121;51.090;17.038;2022-12-08T01:41:22;99447.56;;;3.71;68.13
39405;BME280;25121;51.090;17.038;2022-12-08T01:42:44;99449.66;;;3.67;68.04
39405;BME280;25121;51.090;17.038;2022-12-08T01:46:02;99453.63;;;3.63;68.22
39405;BME280;25121;51.090;17.038;2022-12-08T01:47:31;99444.13;;;3.61;68.30
39405;BME280;25121;51.090;17.038;2022-12-08T01:48:59;99453.75;;;3.62;68.42
39405;BME280;25121;51.090;17.038;2022-12-08T01:50:23;99451.09;;;3.62;68.41
39405;BME280;25121;51.090;17.038;2022-12-08T01:51:50;99448.44;;;3.62;68.47
39405;BME280;25121;51.090;17.038;2022-12-08T01:53:18;99442.72;;;3.57;68.80
39405;BME280;25121;51.090;17.038;2022-12-08T01:54:48;99440.63;;;3.60;68.42
39405;BME280;25121;51.090;17.038;2022-12-08T01:56:13;99447.31;;;3.64;68.69
39405;BME280;25121;51.090;17.038;2022-12-08T01:57:40;99451.66;;;3.65;68.69
39405;BME280;25121;51.090;17.038;2022-12-08T01:59:07;99451.09;;;3.62;68.48
39405;BME280;25121;51.090;17.038;2022-12-08T02:00:30;99450.53;;;3.68;68.69
39405;BME280;25121;51.090;17.038;2022-12-08T02:01:54;99445.03;;;3.70;68.92
39405;BME280;25121;51.090;17.038;2022-12-08T02:03:20;99444.06;;;3.71;68.35
39405;BME280;25121;51.090;17.038;2022-12-08T02:04:45;99443.09;;;3.72;68.32
39405;BME280;25121;51.090;17.038;2022-12-08T02:06:06;99438.06;;;3.69;68.39
39405;BME280;25121;51.090;17.038;2022-12-08T02:07:28;99433.59;;;3.69;68.23
39405;BME280;25121;51.090;17.038;2022-12-08T02:08:51;99442.13;;;3.73;68.24
39405;BME280;25121;51.090;17.038;2022-12-08T02:10:19;99436.81;;;3.73;68.21
39405;BME280;25121;51.090;17.038;2022-12-08T02:11:40;99432.44;;;3.72;68.37
39405;BME280;25121;51.090;17.038;2022-12-08T02:13:03;99435.94;;;3.72;68.19
39405;BME280;25121;51.090;17.038;2022-12-08T02:14:25;99438.34;;;3.75;68.12
39405;BME280;25121;51.090;17.038;2022-12-08T02:15:53;99438.59;;;3.72;68.14
39405;BME280;25121;51.090;17.038;2022-12-08T02:17:32;99433.28;;;3.72;68.03
39405;BME280;25121;51.090;17.038;2022-12-08T02:19:04;99439.47;;;3.73;68.10
39405;BME280;25121;51.090;17.038;2022-12-08T02:20:56;99439.59;;;3.71;67.91
39405;BME280;25121;51.090;17.038;2022-12-08T02:22:27;99440.44;;;3.72;67.92
39405;BME280;25121;51.090;17.038;2022-12-08T02:23:56;99449.53;;;3.69;68.02
39405;BME280;25121;51.090;17.038;2022-12-08T02:25:30;99445.03;;;3.70;68.13
39405;BME280;25121;51.090;17.038;2022-12-08T02:27:25;99443.53;;;3.67;68.00
39405;BME280;25121;51.090;17.038;2022-12-08T02:29:05;99445.47;;;3.65;68.04
39405;BME280;25121;51.090;17.038;2022-12-08T02:30:46;99450.13;;;3.63;67.91
39405;BME280;25121;51.090;17.038;2022-12-08T02:32:32;99444.94;;;3.61;67.92
39405;BME280;25121;51.090;17.038;2022-12-08T02:34:16;99441.59;;;3.59;68.10
39405;BME280;25121;51.090;17.038;2022-12-08T02:35:48;99443.28;;;3.60;68.04
39405;BME280;25121;51.090;17.038;2022-12-08T02:37:16;99451.25;;;3.60;68.17
39405;BME280;25121;51.090;17.038;2022-12-08T02:38:47;99447.91;;;3.58;68.03
39405;BME280;25121;51.090;17.038;2022-12-08T02:40:16;99448.75;;;3.59;68.13
39405;BME280;25121;51.090;17.038;2022-12-08T02:41:46;99446.91;;;3.59;68.22
39405;BME280;25121;51.090;17.038;2022-12-08T02:43:16;99443.28;;;3.60;68.15
39405;BME280;25121;51.090;17.038;2022-12-08T02:44:47;99431.13;;;3.58;68.10
39405;BME280;25121;51.090;17.038;2022-12-08T02:46:14;99438.63;;;3.62;68.41
39405;BME280;25121;51.090;17.038;2022-12-08T02:47:39;99441.16;;;3.64;68.53
39405;BME280;25121;51.090;17.038;2022-12-08T02:49:02;99436.53;;;3.66;68.48
39405;BME280;25121;51.090;17.038;2022-12-08T02:50:28;99429.72;;;3.63;68.50
39405;BME280;25121;51.090;17.038;2022-12-08T02:51:51;99431.38;;;3.64;68.23
39405;BME280;25121;51.090;17.038;2022-12-08T02:53:13;99427.03;;;3.63;68.39
39405;BME280;25121;51.090;17.038;2022-12-08T02:54:35;99435.25;;;3.70;68.43
39405;BME280;25121;51.090;17.038;2022-12-08T02:56:02;99437.78;;;3.72;68.37
39405;BME280;25121;51.090;17.038;2022-12-08T02:57:36;99429.94;;;3.70;68.23
39405;BME280;25121;51.090;17.038;2022-12-08T02:59:12;99434.97;;;3.73;68.16
39405;BME280;25121;51.090;17.038;2022-12-08T03:00:44;99437.34;;;3.76;68.37
39405;BME280;25121;51.090;17.038;2022-12-08T03:02:35;99433.84;;;3.76;68.27
39405;BME280;25121;51.090;17.038;2022-12-08T03:04:07;99426.69;;;3.76;68.29
39405;BME280;25121;51.090;17.038;2022-12-08T03:05:48;99422.06;;;3.78;68.16
39405;BME280;25121;51.090;17.038;2022-12-08T03:07:20;99425.69;;;3.77;68.21
39405;BME280;25121;51.090;17.038;2022-12-08T03:08:48;99434.66;;;3.76;68.06
39405;BME280;25121;51.090;17.038;2022-12-08T03:10:16;99436.34;;;3.77;67.93
39405;BME280;25121;51.090;17.038;2022-12-08T03:11:44;99422.53;;;3.74;67.83
39405;BME280;25121;51.090;17.038;2022-12-08T03:13:11;99427.69;;;3.75;67.78
39405;BME280;25121;51.090;17.038;2022-12-08T03:14:36;99433.16;;;3.74;67.73
39405;BME280;25121;51.090;17.038;2022-12-08T03:16:00;99428.84;;;3.73;67.84
39405;BME280;25121;51.090;17.038;2022-12-08T03:17:27;99431.63;;;3.71;67.80
39405;BME280;25121;51.090;17.038;2022-12-08T03:18:53;99422.13;;;3.69;68.06
39405;BME280;25121;51.090;17.038;2022-12-08T03:20:20;99421.28;;;3.68;67.89
39405;BME280;25121;51.090;17.038;2022-12-08T03:21:45;99419.47;;;3.69;68.10
39405;BME280;25121;51.090;17.038;2022-12-08T03:23:11;99402.44;;;3.61;68.11
39405;BME280;25121;51.090;17.038;2022-12-08T03:24:37;99416.13;;;3.66;68.27
39405;BME280;25121;51.090;17.038;2022-12-08T03:26:03;99417.78;;;3.67;68.19
39405;BME280;25121;51.090;17.038;2022-12-08T03:27:30;99418.63;;;3.68;68.05
39405;BME280;25121;51.090;17.038;2022-12-08T03:28:53;99415.13;;;3.67;68.27
39405;BME280;25121;51.090;17.038;2022-12-08T03:30:17;99414.28;;;3.67;68.04
39405;BME280;25121;51.090;17.038;2022-12-08T03:31:44;99413.47;;;3.66;68.25
39405;BME280;25121;51.090;17.038;2022-12-08T03:33:10;99418.78;;;3.66;68.16
39405;BME280;25121;51.090;17.038;2022-12-08T03:34:35;99421.28;;;3.68;68.37
39405;BME280;25121;51.090;17.038;2022-12-08T03:36:04;99415.13;;;3.67;68.30
39405;BME280;25121;51.090;17.038;2022-12-08T03:37:30;99417.69;;;3.59;68.39
39405;BME280;25121;51.090;17.038;2022-12-08T03:38:53;99418.50;;;3.60;68.30
39405;BME280;25121;51.090;17.038;2022-12-08T03:40:16;99430.94;;;3.69;68.35
39405;BME280;25121;51.090;17.038;2022-12-08T03:41:39;99421.13;;;3.70;68.41
39405;BME280;25121;51.090;17.038;2022-12-08T03:43:02;99425.75;;;3.67;68.33
39405;BME280;25121;51.090;17.038;2022-12-08T03:44:25;99432.59;;;3.70;68.27
39405;BME280;25121;51.090;17.038;2022-12-08T03:45:46;99428.97;;;3.71;68.28
39405;BME280;25121;51.090;17.038;2022-12-08T03:47:08;99432.44;;;3.72;68.33
39405;BME280;25121;51.090;17.038;2022-12-08T03:48:31;99434.16;;;3.73;68.13
39405;BME280;25121;51.090;17.038;2022-12-08T03:49:52;99431.63;;;3.71;68.20
39405;BME280;25121;51.090;17.038;2022-12-08T03:51:14;99429.66;;;3.73;68.04
39405;BME280;25121;51.090;17.038;2022-12-08T03:52:37;99428.84;;;3.73;68.21
39405;BME280;25121;51.090;17.038;2022-12-08T03:54:01;99433.97;;;3.74;68.09
39405;BME280;25121;51.090;17.038;2022-12-08T03:55:22;99417.78;;;3.67;68.09
39405;BME280;25121;51.090;17.038;2022-12-08T03:56:45;99427.13;;;3.72;68.20
39405;BME280;25121;51.090;17.038;2022-12-08T03:58:07;99424.34;;;3.73;68.16
39405;BME280;25121;51.090;17.038;2022-12-08T03:59:28;99428.66;;;3.74;68.26
39405;BME280;25121;51.090;17.038;2022-12-08T04:00:50;99427.69;;;3.75;68.29
39405;BME280;25121;51.090;17.038;2022-12-08T04:02:15;99412.31;;;3.69;68.32
39405;BME280;25121;51.090;17.038;2022-12-08T04:03:44;99421.53;;;3.75;68.28
39405;BME280;25121;51.090;17.038;2022-12-08T04:05:05;99432.72;;;3.78;68.09
39405;BME280;25121;51.090;17.038;2022-12-08T04:06:27;99416.38;;;3.73;68.36
39405;BME280;25121;51.090;17.038;2022-12-08T04:07:50;99432.72;;;3.78;68.40
39405;BME280;25121;51.090;17.038;2022-12-08T04:09:13;99426.69;;;3.76;68.37
39405;BME280;25121;51.090;17.038;2022-12-08T04:10:36;99428.22;;;3.79;68.20
39405;BME280;25121;51.090;17.038;2022-12-08T04:11:57;99419.25;;;3.80;68.46
39405;BME280;25121;51.090;17.038;2022-12-08T04:13:20;99411.19;;;3.72;68.39
39405;BME280;25121;51.090;17.038;2022-12-08T04:14:44;99420.13;;;3.80;68.58
39405;BME280;25121;51.090;17.038;2022-12-08T04:16:07;99404.75;;;3.74;68.60
39405;BME280;25121;51.090;17.038;2022-12-08T04:17:29;99414.63;;;3.82;68.63
39405;BME280;25121;51.090;17.038;2022-12-08T04:18:51;99416.47;;;3.81;68.67
39405;BME280;25121;51.090;17.038;2022-12-08T04:20:14;99414.63;;;3.82;68.56
39405;BME280;25121;51.090;17.038;2022-12-08T04:21:36;99411.97;;;3.82;68.68
39405;BME280;25121;51.090;17.038;2022-12-08T04:22:59;99408.50;;;3.81;68.84
39405;BME280;25121;51.090;17.038;2022-12-08T04:24:21;99410.16;;;3.82;69.11
39405;BME280;25121;51.090;17.038;2022-12-08T04:25:43;99400.50;;;3.81;68.78
39405;BME280;25121;51.090;17.038;2022-12-08T04:27:06;99399.50;;;3.82;68.64
39405;BME280;25121;51.090;17.038;2022-12-08T04:28:28;99395.06;;;3.83;68.54
39405;BME280;25121;51.090;17.038;2022-12-08T04:29:52;99398.69;;;3.82;68.51
39405;BME280;25121;51.090;17.038;2022-12-08T04:31:14;99400.66;;;3.80;68.31
39405;BME280;25121;51.090;17.038;2022-12-08T04:32:35;99404.44;;;3.77;68.14
39405;BME280;25121;51.090;17.038;2022-12-08T04:34:03;99398.59;;;3.74;68.17
39405;BME280;25121;51.090;17.038;2022-12-08T04:35:26;99395.56;;;3.69;68.27
39405;BME280;25121;51.090;17.038;2022-12-08T04:36:47;99399.34;;;3.66;68.28
39405;BME280;25121;51.090;17.038;2022-12-08T04:38:11;99394.59;;;3.60;68.07
39405;BME280;25121;51.090;17.038;2022-12-08T04:39:32;99408.44;;;3.63;68.36
39405;BME280;25121;51.090;17.038;2022-12-08T04:40:54;99398.13;;;3.60;68.55
39405;BME280;25121;51.090;17.038;2022-12-08T04:42:18;99411.41;;;3.60;68.69
39405;BME280;25121;51.090;17.038;2022-12-08T04:43:40;99406.38;;;3.57;68.54
39405;BME280;25121;51.090;17.038;2022-12-08T04:45:04;99398.69;;;3.54;68.72
39405;BME280;25121;51.090;17.038;2022-12-08T04:46:27;99398.69;;;3.54;68.37
39405;BME280;25121;51.090;17.038;2022-12-08T04:47:49;99400.66;;;3.52;68.80
39405;BME280;25121;51.090;17.038;2022-12-08T04:49:11;99397.47;;;3.49;68.75
39405;BME280;25121;51.090;17.038;2022-12-08T04:50:33;99393.13;;;3.48;68.73
39405;BME280;25121;51.090;17.038;2022-12-08T04:51:54;99390.47;;;3.48;68.86
39405;BME280;25121;51.090;17.038;2022-12-08T04:53:17;99388.53;;;3.40;69.09
39405;BME280;25121;51.090;17.038;2022-12-08T04:54:39;99398.72;;;3.44;68.87
39405;BME280;25121;51.090;17.038;2022-12-08T04:56:09;99391.75;;;3.43;69.02
39405;BME280;25121;51.090;17.038;2022-12-08T04:57:31;99395.25;;;3.44;69.18
39405;BME280;25121;51.090;17.038;2022-12-08T04:58:53;99390.06;;;3.42;69.18
39405;BME280;25121;51.090;17.038;2022-12-08T05:00:16;99391.75;;;3.43;69.37
39405;BME280;25121;51.090;17.038;2022-12-08T05:01:37;99390.06;;;3.42;69.32
39405;BME280;25121;51.090;17.038;2022-12-08T05:02:59;99386.59;;;3.42;69.36
39405;BME280;25121;51.090;17.038;2022-12-08T05:04:25;99383.94;;;3.42;69.25
39405;BME280;25121;51.090;17.038;2022-12-08T05:05:47;99397.22;;;3.42;69.36
39405;BME280;25121;51.090;17.038;2022-12-08T05:07:09;99381.56;;;3.39;69.33
39405;BME280;25121;51.090;17.038;2022-12-08T05:08:32;99396.50;;;3.40;69.36
39405;BME280;25121;51.090;17.038;2022-12-08T05:09:54;99387.03;;;3.37;69.30
39405;BME280;25121;51.090;17.038;2022-12-08T05:11:16;99389.53;;;3.39;69.46
39405;BME280;25121;51.090;17.038;2022-12-08T05:12:39;99393.16;;;3.38;69.29
39405;BME280;25121;51.090;17.038;2022-12-08T05:14:00;99386.06;;;3.38;69.37
39405;BME280;25121;51.090;17.038;2022-12-08T05:15:22;99388.84;;;3.37;69.27
39405;BME280;25121;51.090;17.038;2022-12-08T05:16:44;99381.88;;;3.36;69.44
39405;BME280;25121;51.090;17.038;2022-12-08T05:18:07;99383.00;;;3.33;69.64
39405;BME280;25121;51.090;17.038;2022-12-08T05:19:31;99385.50;;;3.35;69.46
39405;BME280;25121;51.090;17.038;2022-12-08T05:20:53;99385.50;;;3.35;69.59
39405;BME280;25121;51.090;17.038;2022-12-08T05:22:16;99388.16;;;3.35;69.61
39405;BME280;25121;51.090;17.038;2022-12-08T05:23:39;99382.00;;;3.34;69.70
39405;BME280;25121;51.090;17.038;2022-12-08T05:25:01;99387.63;;;3.31;69.73
39405;BME280;25121;51.090;17.038;2022-12-08T05:26:25;99385.78;;;3.32;69.54
39405;BME280;25121;51.090;17.038;2022-12-08T05:27:47;99385.09;;;3.30;69.51
39405;BME280;25121;51.090;17.038;2022-12-08T05:29:09;99383.44;;;3.29;69.62
39405;BME280;25121;51.090;17.038;2022-12-08T05:30:31;99380.91;;;3.27;69.43
39405;BME280;25121;51.090;17.038;2022-12-08T05:31:53;99385.53;;;3.25;69.45
39405;BME280;25121;51.090;17.038;2022-12-08T05:33:14;99380.38;;;3.23;69.61
39405;BME280;25121;51.090;17.038;2022-12-08T05:34:36;99382.63;;;3.18;69.51
39405;BME280;25121;51.090;17.038;2022-12-08T05:35:57;99386.13;;;3.19;69.64
39405;BME280;25121;51.090;17.038;2022-12-08T05:37:19;99380.13;;;3.17;69.68
39405;BME280;25121;51.090;17.038;2022-12-08T05:38:42;99382.06;;;3.15;69.83
39405;BME280;25121;51.090;17.038;2022-12-08T05:40:06;99373.41;;;3.13;69.43
39405;BME280;25121;51.090;17.038;2022-12-08T05:41:28;99375.25;;;3.12;69.83
39405;BME280;25121;51.090;17.038;2022-12-08T05:42:49;99376.53;;;3.08;69.90
39405;BME280;25121;51.090;17.038;2022-12-08T05:44:12;99374.84;;;3.07;69.75
39405;BME280;25121;51.090;17.038;2022-12-08T05:45:34;99373.31;;;3.05;69.74
39405;BME280;25121;51.090;17.038;2022-12-08T05:46:57;99369.00;;;3.04;69.76
39405;BME280;25121;51.090;17.038;2022-12-08T05:48:19;99369.81;;;3.04;69.95
39405;BME280;25121;51.090;17.038;2022-12-08T05:49:41;99376.09;;;3.03;69.96
39405;BME280;25121;51.090;17.038;2022-12-08T05:51:03;99377.38;;;2.99;70.00
39405;BME280;25121;51.090;17.038;2022-12-08T05:52:25;99381.88;;;2.98;69.93
39405;BME280;25121;51.090;17.038;2022-12-08T05:53:49;99374.88;;;2.97;70.06
39405;BME280;25121;51.090;17.038;2022-12-08T05:55:12;99382.69;;;2.99;69.86
39405;BME280;25121;51.090;17.038;2022-12-08T05:56:34;99374.88;;;2.97;70.24
39405;BME280;25121;51.090;17.038;2022-12-08T05:57:56;99382.81;;;2.97;70.30
39405;BME280;25121;51.090;17.038;2022-12-08T05:59:23;99373.34;;;2.95;70.38
39405;BME280;25121;51.090;17.038;2022-12-08T06:00:46;99376.00;;;2.95;70.67
39405;BME280;25121;51.090;17.038;2022-12-08T06:02:09;99368.03;;;2.95;70.42
39405;BME280;25121;51.090;17.038;2022-12-08T06:03:31;99364.41;;;2.96;70.53
39405;BME280;25121;51.090;17.038;2022-12-08T06:04:53;99371.50;;;2.95;70.89
39405;BME280;25121;51.090;17.038;2022-12-08T06:06:15;99367.06;;;2.96;70.77
39405;BME280;25121;51.090;17.038;2022-12-08T06:07:38;99371.25;;;2.98;70.84
39405;BME280;25121;51.090;17.038;2022-12-08T06:09:03;99377.38;;;2.99;70.94
39405;BME280;25121;51.090;17.038;2022-12-08T06:10:25;99369.72;;;2.96;70.90
39405;BME280;25121;51.090;17.038;2022-12-08T06:11:48;99372.06;;;2.99;70.77
39405;BME280;25121;51.090;17.038;2022-12-08T06:13:10;99377.22;;;3.00;70.86
39405;BME280;25121;51.090;17.038;2022-12-08T06:14:43;99369.56;;;2.97;70.76
39405;BME280;25121;51.090;17.038;2022-12-08T06:16:06;99377.91;;;3.02;70.80
39405;BME280;25121;51.090;17.038;2022-12-08T06:17:28;99369.00;;;3.04;70.74
39405;BME280;25121;51.090;17.038;2022-12-08T06:18:54;99370.78;;;3.03;70.87
39405;BME280;25121;51.090;17.038;2022-12-08T06:20:15;99376.78;;;3.05;70.84
39405;BME280;25121;51.090;17.038;2022-12-08T06:21:36;99375.13;;;3.04;70.83
39405;BME280;25121;51.090;17.038;2022-12-08T06:22:59;99371.50;;;3.05;70.86
39405;BME280;25121;51.090;17.038;2022-12-08T06:24:22;99374.00;;;3.07;70.73
39405;BME280;25121;51.090;17.038;2022-12-08T06:25:45;99372.06;;;3.09;70.85
39405;BME280;25121;51.090;17.038;2022-12-08T06:27:07;99379.84;;;3.10;70.83
39405;BME280;25121;51.090;17.038;2022-12-08T06:28:30;99371.88;;;3.10;70.78
39405;BME280;25121;51.090;17.038;2022-12-08T06:29:52;99373.56;;;3.11;70.79
39405;BME280;25121;51.090;17.038;2022-12-08T06:31:16;99370.91;;;3.11;70.83
39405;BME280;25121;51.090;17.038;2022-12-08T06:32:39;99372.44;;;3.14;70.87
39405;BME280;25121;51.090;17.038;2022-12-08T06:34:00;99369.94;;;3.12;70.64
39405;BME280;25121;51.090;17.038;2022-12-08T06:35:22;99367.13;;;3.14;70.76
39405;BME280;25121;51.090;17.038;2022-12-08T06:36:45;99373.16;;;3.16;70.68
39405;BME280;25121;51.090;17.038;2022-12-08T06:38:07;99362.53;;;3.16;70.57
39405;BME280;25121;51.090;17.038;2022-12-08T06:39:31;99366.44;;;3.12;70.46
39405;BME280;25121;51.090;17.038;2022-12-08T06:40:55;99373.97;;;3.16;70.64
39405;BME280;25121;51.090;17.038;2022-12-08T06:42:17;99376.63;;;3.16;70.57
39405;BME280;25121;51.090;17.038;2022-12-08T06:43:57;99371.31;;;3.16;70.73
39405;BME280;25121;51.090;17.038;2022-12-08T06:45:19;99381.94;;;3.16;70.42
39405;BME280;25121;51.090;17.038;2022-12-08T06:46:41;99382.78;;;3.17;70.60
39405;BME280;25121;51.090;17.038;2022-12-08T06:48:04;99381.78;;;3.18;70.49
39405;BME280;25121;51.090;17.038;2022-12-08T06:49:26;99378.59;;;3.14;70.51
39405;BME280;25121;51.090;17.038;2022-12-08T06:50:48;99379.28;;;3.16;70.57
39405;BME280;25121;51.090;17.038;2022-12-08T06:52:11;99375.81;;;3.16;70.60
39405;BME280;25121;51.090;17.038;2022-12-08T06:53:32;99376.47;;;3.18;70.60
39405;BME280;25121;51.090;17.038;2022-12-08T06:54:55;99376.63;;;3.16;70.53
39405;BME280;25121;51.090;17.038;2022-12-08T06:56:18;99375.81;;;3.16;70.62
39405;BME280;25121;51.090;17.038;2022-12-08T06:57:41;99373.16;;;3.16;70.30
39405;BME280;25121;51.090;17.038;2022-12-08T06:59:03;99381.25;;;3.14;70.53
39405;BME280;25121;51.090;17.038;2022-12-08T07:00:25;99375.09;;;3.14;70.52
39405;BME280;25121;51.090;17.038;2022-12-08T07:01:47;99381.25;;;3.14;70.62
39405;BME280;25121;51.090;17.038;2022-12-08T07:03:10;99379.41;;;3.15;70.63
39405;BME280;25121;51.090;17.038;2022-12-08T07:04:33;99380.25;;;3.15;70.64
39405;BME280;25121;51.090;17.038;2022-12-08T07:05:55;99382.25;;;3.13;70.67
39405;BME280;25121;51.090;17.038;2022-12-08T07:07:23;99374.94;;;3.15;70.43
39405;BME280;25121;51.090;17.038;2022-12-08T07:08:45;99375.94;;;3.14;70.56
39405;BME280;25121;51.090;17.038;2022-12-08T07:10:11;99378.47;;;3.16;70.50
39405;BME280;25121;51.090;17.038;2022-12-08T07:11:34;99376.22;;;3.11;70.44
39405;BME280;25121;51.090;17.038;2022-12-08T07:12:57;99382.91;;;3.15;70.56
39405;BME280;25121;51.090;17.038;2022-12-08T07:14:19;99378.47;;;3.16;70.77
39405;BME280;25121;51.090;17.038;2022-12-08T07:15:44;99374.28;;;3.13;70.56
39405;BME280;25121;51.090;17.038;2022-12-08T07:17:07;99380.25;;;3.15;70.58
39405;BME280;25121;51.090;17.038;2022-12-08T07:18:30;99376.63;;;3.16;70.60
39405;BME280;25121;51.090;17.038;2022-12-08T07:19:55;99371.06;;;3.10;70.78
39405;BME280;25121;51.090;17.038;2022-12-08T07:21:22;99375.53;;;3.09;70.62
39405;BME280;25121;51.090;17.038;2022-12-08T07:22:48;99383.59;;;3.17;70.63
39405;BME280;25121;51.090;17.038;2022-12-08T07:24:10;99383.47;;;3.19;70.71
39405;BME280;25121;51.090;17.038;2022-12-08T07:25:33;99385.97;;;3.20;70.86
39405;BME280;25121;51.090;17.038;2022-12-08T07:26:58;99384.00;;;3.22;70.71
39405;BME280;25121;51.090;17.038;2022-12-08T07:28:20;99379.56;;;3.23;70.73
39405;BME280;25121;51.090;17.038;2022-12-08T07:29:47;99381.22;;;3.24;70.66
39405;BME280;25121;51.090;17.038;2022-12-08T07:31:19;99380.38;;;3.23;70.71
39405;BME280;25121;51.090;17.038;2022-12-08T07:32:42;99377.44;;;3.27;70.81
39405;BME280;25121;51.090;17.038;2022-12-08T07:34:05;99373.78;;;3.28;70.78
39405;BME280;25121;51.090;17.038;2022-12-08T07:35:27;99379.66;;;3.31;70.62